createdAt,value
2023-01-21T00:00:45.726Z,95432.97
2023-01-21T00:03:47.938Z,95430.59
2023-01-21T00:06:50.032Z,95440.00
2023-01-21T00:09:51.845Z,95444.06
2023-01-21T00:12:57.278Z,95436.09
2023-01-21T00:15:59.499Z,95446.13
2023-01-21T00:19:01.635Z,95440.31
2023-01-21T00:22:04.655Z,95435.47
2023-01-21T00:25:07.549Z,95439.84
2023-01-21T00:28:11.060Z,95447.03
2023-01-21T00:31:13.259Z,95437.69
2023-01-21T00:34:19.635Z,95438.00
2023-01-21T00:37:21.461Z,95446.41
2023-01-21T00:40:23.341Z,95445.47
2023-01-21T00:43:33.913Z,95446.88
2023-01-21T00:46:36.020Z,95449.22
2023-01-21T00:49:37.878Z,95452.78
2023-01-21T00:52:39.656Z,95449.22
2023-01-21T00:55:42.024Z,95463.72
2023-01-21T00:58:47.739Z,95454.03
2023-01-21T01:01:49.760Z,95454.34
2023-01-21T01:04:51.575Z,95451.25
2023-01-21T01:07:54.407Z,95441.88
2023-01-21T01:10:56.463Z,95453.56
2023-01-21T01:14:01.363Z,95450.63
2023-01-21T01:17:03.214Z,95464.00
2023-01-21T01:20:06.113Z,95456.34
2023-01-21T01:23:07.864Z,95450.78
2023-01-21T01:26:11.710Z,95455.00
2023-01-21T01:29:15.117Z,95462.75
2023-01-21T01:32:16.973Z,95461.06
2023-01-21T01:35:18.715Z,95466.00
2023-01-21T01:38:22.356Z,95459.75
2023-01-21T01:41:26.688Z,95458.97
2023-01-21T01:45:05.062Z,95459.44
2023-01-21T01:48:11.937Z,95453.47
2023-01-21T01:51:16.949Z,95452.56
2023-01-21T01:54:23.225Z,95448.88
2023-01-21T01:57:34.861Z,95450.09
2023-01-21T02:00:36.933Z,95448.56
2023-01-21T02:03:44.365Z,95446.19
2023-01-21T02:06:48.194Z,95437.47
2023-01-21T02:09:50.949Z,95439.69
2023-01-21T02:12:53.372Z,95445.25
2023-01-21T02:16:12.302Z,95441.06
2023-01-21T02:20:07.099Z,95444.94
2023-01-21T02:23:17.298Z,95441.50
2023-01-21T02:26:48.102Z,95437.75
2023-01-21T02:30:25.670Z,95443.22
2023-01-21T02:33:53.502Z,95443.81
2023-01-21T02:37:05.192Z,95445.81
2023-01-21T02:40:13.653Z,95436.59
2023-01-21T02:43:24.880Z,95430.53
2023-01-21T02:46:33.891Z,95428.06
2023-01-21T02:49:41.927Z,95431.28
2023-01-21T02:52:44.311Z,95431.63
2023-01-21T02:55:46.117Z,95430.97
2023-01-21T02:58:51.630Z,95428.41
2023-01-21T03:02:03.598Z,95431.84
2023-01-21T03:05:16.799Z,95420.56
2023-01-21T03:08:21.988Z,95419.94
2023-01-21T03:11:24.198Z,95423.28
2023-01-21T03:14:32.353Z,95426.53
2023-01-21T03:17:40.141Z,95428.44
2023-01-21T03:20:47.205Z,95428.09
2023-01-21T03:23:52.844Z,95429.84
2023-01-21T03:26:55.934Z,95426.19
2023-01-21T03:30:02.846Z,95427.13
2023-01-21T03:33:06.771Z,95423.53
2023-01-21T03:36:16.519Z,95417.81
2023-01-21T03:39:27.119Z,95420.34
2023-01-21T03:42:30.108Z,95422.72
2023-01-21T03:45:37.391Z,95424.28
2023-01-21T03:48:44.705Z,95431.25
2023-01-21T03:51:52.875Z,95423.44
2023-01-21T03:54:54.881Z,95427.94
2023-01-21T03:57:56.931Z,95423.97
2023-01-21T04:00:58.761Z,95426.13
2023-01-21T04:04:01.823Z,95428.50
2023-01-21T04:07:05.209Z,95426.31
2023-01-21T04:10:11.140Z,95423.78
2023-01-21T04:13:12.923Z,95419.50
2023-01-21T04:16:15.553Z,95429.03
2023-01-21T04:19:17.326Z,95429.19
2023-01-21T04:22:21.234Z,95409.81
2023-01-21T04:25:23.042Z,95423.44
2023-01-21T04:28:26.946Z,95422.66
2023-01-21T04:31:29.238Z,95426.25
2023-01-21T04:34:31.252Z,95428.00
2023-01-21T04:37:36.788Z,95431.13
2023-01-21T04:40:38.750Z,95427.09
2023-01-21T04:43:41.563Z,95429.50
2023-01-21T04:46:43.336Z,95436.84
2023-01-21T04:49:45.103Z,95436.47
2023-01-21T04:52:49.108Z,95437.81
2023-01-21T04:55:52.537Z,95444.06
2023-01-21T04:58:54.341Z,95445.88
2023-01-21T05:01:56.441Z,95449.06
2023-01-21T05:04:58.274Z,95444.72
2023-01-21T05:08:01.691Z,95445.63
2023-01-21T05:11:03.541Z,95442.97
2023-01-21T05:14:05.611Z,95440.81
2023-01-21T05:17:07.449Z,95440.50
2023-01-21T05:20:10.681Z,95441.13
2023-01-21T05:23:13.905Z,95440.06
2023-01-21T05:26:15.923Z,95441.06
2023-01-21T05:29:19.158Z,95448.69
2023-01-21T05:32:23.777Z,95448.31
2023-01-21T05:35:25.589Z,95441.94
2023-01-21T05:38:29.724Z,95450.66
2023-01-21T05:41:32.145Z,95452.19
2023-01-21T05:44:34.184Z,95454.69
2023-01-21T05:47:37.681Z,95447.47
2023-01-21T05:50:39.756Z,95450.28
2023-01-21T05:53:44.509Z,95455.72
2023-01-21T05:56:46.314Z,95451.69
2023-01-21T05:59:48.446Z,95453.31
2023-01-21T06:02:51.716Z,95453.84
2023-01-21T06:05:56.284Z,95451.31
2023-01-21T06:09:01.997Z,95455.72
2023-01-21T06:12:05.009Z,95450.13
2023-01-21T06:15:08.131Z,95453.47
2023-01-21T06:18:14.330Z,95448.94
2023-01-21T06:21:16.423Z,95454.19
2023-01-21T06:24:24.531Z,95451.91
2023-01-21T06:27:26.316Z,95460.84
2023-01-21T06:30:28.404Z,95460.81
2023-01-21T06:33:32.553Z,95461.59
2023-01-21T06:36:36.063Z,95474.16
2023-01-21T06:39:39.521Z,95478.38
2023-01-21T06:42:43.929Z,95474.72
2023-01-21T06:45:46.509Z,95481.22
2023-01-21T06:48:48.343Z,95483.66
2023-01-21T06:51:50.649Z,95487.97
2023-01-21T06:54:53.846Z,95484.91
2023-01-21T06:57:55.678Z,95480.25
2023-01-21T07:00:57.936Z,95492.47
2023-01-21T07:04:02.057Z,95497.56
2023-01-21T07:07:03.815Z,95507.84
2023-01-21T07:10:08.009Z,95498.06
2023-01-21T07:13:11.896Z,95501.78
2023-01-21T07:16:13.793Z,95497.34
2023-01-21T07:19:16.041Z,95504.69
2023-01-21T07:22:17.795Z,95502.81
2023-01-21T07:25:21.198Z,95508.22
2023-01-21T07:28:23.298Z,95501.47
2023-01-21T07:31:28.146Z,95508.81
2023-01-21T07:34:29.976Z,95507.34
2023-01-21T07:37:32.520Z,95514.31
2023-01-21T07:40:38.286Z,95514.50
2023-01-21T07:43:40.130Z,95508.41
2023-01-21T07:46:44.788Z,95515.88
2023-01-21T07:49:50.111Z,95507.63
2023-01-21T07:52:53.050Z,95514.97
2023-01-21T07:55:56.513Z,95517.94
2023-01-21T07:58:58.348Z,95517.72
2023-01-21T08:02:00.417Z,95513.22
2023-01-21T08:05:02.586Z,95509.47
2023-01-21T08:08:05.134Z,95520.16
2023-01-21T08:11:08.383Z,95513.69
2023-01-21T08:14:10.497Z,95512.34
2023-01-21T08:17:12.921Z,95514.97
2023-01-21T08:20:15.084Z,95512.97
2023-01-21T08:23:17.159Z,95517.78
2023-01-21T08:26:22.282Z,95522.88
2023-01-21T08:29:25.604Z,95518.47
2023-01-21T08:32:32.734Z,95517.50
2023-01-21T08:35:34.702Z,95515.53
2023-01-21T08:38:38.697Z,95523.66
2023-01-21T08:41:43.115Z,95525.34
2023-01-21T08:44:44.906Z,95531.91
2023-01-21T08:47:47.021Z,95524.38
2023-01-21T08:50:51.430Z,95534.47
2023-01-21T08:53:55.287Z,95531.34
2023-01-21T08:56:58.480Z,95533.56
2023-01-21T09:00:00.320Z,95544.28
2023-01-21T09:03:02.101Z,95548.97
2023-01-21T09:06:05.083Z,95544.78
2023-01-21T09:09:06.893Z,95547.69
2023-01-21T09:12:11.381Z,95548.81
2023-01-21T09:15:14.295Z,95556.13
2023-01-21T09:18:18.756Z,95559.94
2023-01-21T09:21:20.554Z,95567.31
2023-01-21T09:24:22.381Z,95566.47
2023-01-21T09:27:25.583Z,95570.19
2023-01-21T09:30:27.426Z,95575.97
2023-01-21T09:33:30.780Z,95571.75
2023-01-21T09:36:34.845Z,95574.00
2023-01-21T09:39:36.926Z,95576.66
2023-01-21T09:42:41.414Z,95571.88
2023-01-21T09:45:45.389Z,95578.75
2023-01-21T09:48:50.682Z,95574.81
2023-01-21T09:52:00.602Z,95577.22
2023-01-21T09:55:04.452Z,95578.34
2023-01-21T09:58:19.821Z,95582.66
2023-01-21T10:01:29.047Z,95579.22
2023-01-21T10:04:41.519Z,95585.72
2023-01-21T10:07:54.039Z,95577.69
2023-01-21T10:11:03.030Z,95582.94
2023-01-21T10:14:14.920Z,95577.94
2023-01-21T10:17:25.641Z,95578.44
2023-01-21T10:20:31.492Z,95573.47
2023-01-21T10:23:38.201Z,95578.31
2023-01-21T10:26:43.521Z,95569.91
2023-01-21T10:29:50.660Z,95571.97
2023-01-21T10:32:55.059Z,95568.38
2023-01-21T10:36:20.892Z,95568.56
2023-01-21T10:39:37.366Z,95570.31
2023-01-21T10:42:51.527Z,95558.59
2023-01-21T10:46:02.762Z,95561.88
2023-01-21T10:49:18.288Z,95565.56
2023-01-21T10:52:29.809Z,95567.59
2023-01-21T10:55:43.444Z,95565.25
2023-01-21T10:58:49.100Z,95558.31
2023-01-21T11:02:02.366Z,95562.59
2023-01-21T11:05:06.284Z,95555.97
2023-01-21T11:08:14.942Z,95558.75
2023-01-21T11:11:24.607Z,95555.69
2023-01-21T11:14:26.653Z,95547.59
2023-01-21T11:17:33.204Z,95554.47
2023-01-21T11:20:39.642Z,95557.53
2023-01-21T11:23:41.479Z,95555.50
2023-01-21T11:26:51.148Z,95551.38
2023-01-21T11:29:52.932Z,95549.34
2023-01-21T11:33:12.998Z,95545.19
2023-01-21T11:36:16.775Z,95544.84
2023-01-21T11:39:23.715Z,95545.69
2023-01-21T11:42:26.142Z,95543.50
2023-01-21T11:45:30.485Z,95543.09
2023-01-21T11:48:33.896Z,95543.22
2023-01-21T11:51:38.045Z,95537.34
2023-01-21T11:54:42.350Z,95526.53
2023-01-21T11:57:50.493Z,95524.47
2023-01-21T12:00:55.753Z,95522.63
2023-01-21T12:04:01.266Z,95518.75
2023-01-21T12:07:05.480Z,95521.25
2023-01-21T12:10:20.572Z,95527.03
2023-01-21T12:13:33.663Z,95521.41
2023-01-21T12:16:38.240Z,95517.19
2023-01-21T12:19:55.144Z,95512.56
2023-01-21T12:23:11.004Z,95514.69
2023-01-21T12:26:28.314Z,95516.66
2023-01-21T12:29:42.540Z,95516.19
2023-01-21T12:32:48.783Z,95518.16
2023-01-21T12:35:57.921Z,95516.84
2023-01-21T12:39:21.452Z,95516.28
2023-01-21T12:42:30.298Z,95520.25
2023-01-21T12:45:39.776Z,95525.69
2023-01-21T12:48:47.358Z,95519.84
2023-01-21T12:51:59.993Z,95515.16
2023-01-21T12:55:10.808Z,95512.72
2023-01-21T12:58:18.162Z,95512.50
2023-01-21T13:01:44.239Z,95517.81
2023-01-21T13:04:54.600Z,95521.63
2023-01-21T13:08:11.598Z,95505.38
2023-01-21T13:11:19.209Z,95517.50
2023-01-21T13:14:28.742Z,95516.00
2023-01-21T13:17:35.137Z,95522.97
2023-01-21T13:20:44.339Z,95512.28
2023-01-21T13:23:54.477Z,95520.41
2023-01-21T13:27:06.227Z,95513.94
2023-01-21T13:30:19.796Z,95519.97
2023-01-21T13:33:34.409Z,95518.22
2023-01-21T13:36:52.004Z,95519.59
2023-01-21T13:40:18.896Z,95508.84
2023-01-21T13:43:39.530Z,95511.72
2023-01-21T13:46:51.972Z,95517.19
2023-01-21T13:50:08.797Z,95515.22
2023-01-21T13:53:26.648Z,95521.63
2023-01-21T13:56:52.337Z,95519.59
2023-01-21T13:59:59.987Z,95513.91
2023-01-21T14:03:13.191Z,95511.34
2023-01-21T14:06:21.807Z,95515.88
2023-01-21T14:09:27.599Z,95526.69
2023-01-21T14:12:48.753Z,95521.84
2023-01-21T14:16:19.884Z,95523.25
2023-01-21T14:20:05.278Z,95523.69
2023-01-21T14:23:32.715Z,95523.19
2023-01-21T14:26:57.297Z,95530.16
2023-01-21T14:33:35.616Z,95533.38
2023-01-21T14:36:44.976Z,95536.44
2023-01-21T14:39:54.593Z,95538.91
2023-01-21T14:42:57.063Z,95542.94
2023-01-21T14:46:00.766Z,95555.38
2023-01-21T14:49:06.819Z,95552.81
2023-01-21T14:52:13.616Z,95560.19
2023-01-21T14:55:27.679Z,95562.59
2023-01-21T14:58:29.860Z,95564.13
2023-01-21T15:01:37.465Z,95563.78
2023-01-21T15:04:53.031Z,95571.00
2023-01-21T15:08:05.828Z,95572.16
2023-01-21T15:11:17.532Z,95567.19
2023-01-21T15:14:23.073Z,95573.91
2023-01-21T15:17:45.016Z,95579.41
2023-01-21T15:20:51.283Z,95588.97
2023-01-21T15:24:13.180Z,95590.03
2023-01-21T15:27:18.147Z,95583.25
2023-01-21T15:30:27.410Z,95579.34
2023-01-21T15:33:30.592Z,95590.47
2023-01-21T15:36:42.789Z,95598.34
2023-01-21T15:39:45.159Z,95596.81
2023-01-21T15:42:54.874Z,95591.38
2023-01-21T15:46:10.161Z,95596.38
2023-01-21T15:49:28.368Z,95595.00
2023-01-21T15:52:43.821Z,95594.94
2023-01-21T15:56:05.986Z,95599.78
2023-01-21T15:59:23.261Z,95598.56
2023-01-21T16:02:28.081Z,95598.13
2023-01-21T16:05:39.326Z,95602.13
2023-01-21T16:09:03.051Z,95597.03
2023-01-21T16:12:17.712Z,95599.25
2023-01-21T16:15:28.814Z,95601.00
2023-01-21T16:18:37.995Z,95608.25
2023-01-21T16:21:44.197Z,95605.47
2023-01-21T16:24:51.523Z,95616.06
2023-01-21T16:27:55.405Z,95607.22
2023-01-21T16:30:59.788Z,95607.41
2023-01-21T16:34:02.002Z,95621.47
2023-01-21T16:37:05.773Z,95616.75
2023-01-21T16:40:27.579Z,95618.31
2023-01-21T16:43:29.717Z,95617.59
2023-01-21T16:46:34.942Z,95619.75
2023-01-21T16:49:37.390Z,95618.13
2023-01-21T16:52:39.449Z,95619.56
2023-01-21T16:55:45.708Z,95620.97
2023-01-21T16:58:47.823Z,95625.78
2023-01-21T17:01:50.829Z,95626.75
2023-01-21T17:04:55.514Z,95622.41
2023-01-21T17:07:59.853Z,95625.19
2023-01-21T17:11:07.496Z,95629.25
2023-01-21T17:14:10.809Z,95626.09
2023-01-21T17:17:23.724Z,95628.13
2023-01-21T17:20:39.231Z,95630.50
2023-01-21T17:23:47.456Z,95627.34
2023-01-21T17:26:54.507Z,95638.44
2023-01-21T17:30:19.268Z,95637.22
2023-01-21T17:33:28.717Z,95641.94
2023-01-21T17:36:35.949Z,95645.66
2023-01-21T17:39:59.806Z,95644.19
2023-01-21T17:43:21.139Z,95645.09
2023-01-21T17:46:24.320Z,95645.72
2023-01-21T17:49:26.940Z,95651.00
2023-01-21T17:52:29.947Z,95651.53
2023-01-21T17:55:34.238Z,95657.50
2023-01-21T17:58:49.384Z,95655.56
2023-01-21T18:01:52.110Z,95657.22
2023-01-21T18:04:55.043Z,95659.06
2023-01-21T18:07:58.004Z,95660.84
2023-01-21T18:10:59.830Z,95662.59
2023-01-21T18:14:03.171Z,95665.19
2023-01-21T18:17:06.702Z,95663.66
2023-01-21T18:20:16.754Z,95670.13
2023-01-21T18:23:19.589Z,95660.41
2023-01-21T18:26:28.726Z,95659.91
2023-01-21T18:29:32.128Z,95662.38
2023-01-21T18:32:42.670Z,95663.03
2023-01-21T18:35:48.029Z,95669.53
2023-01-21T18:38:51.041Z,95659.13
2023-01-21T18:41:53.675Z,95666.31
2023-01-21T18:44:57.547Z,95664.53
2023-01-21T18:48:00.180Z,95676.78
2023-01-21T18:51:02.766Z,95673.94
2023-01-21T18:54:05.661Z,95678.56
2023-01-21T18:57:11.991Z,95687.31
2023-01-21T19:00:26.589Z,95682.88
2023-01-21T19:03:29.275Z,95681.00
2023-01-21T19:06:32.312Z,95684.94
2023-01-21T19:09:34.938Z,95682.97
2023-01-21T19:12:36.936Z,95694.66
2023-01-21T19:15:40.912Z,95692.00
2023-01-21T19:18:43.557Z,95689.84
2023-01-21T19:21:46.478Z,95691.50
2023-01-21T19:24:49.287Z,95690.44
2023-01-21T19:27:53.744Z,95688.97
2023-01-21T19:30:58.272Z,95689.34
2023-01-21T19:34:00.594Z,95691.44
2023-01-21T19:37:03.478Z,95689.66
2023-01-21T19:40:13.499Z,95693.56
2023-01-21T19:43:17.635Z,95706.44
2023-01-21T19:46:23.012Z,95709.56
2023-01-21T19:49:25.558Z,95702.31
2023-01-21T19:52:28.451Z,95695.03
2023-01-21T19:55:34.811Z,95698.69
2023-01-21T19:58:39.354Z,95707.00
2023-01-21T20:01:45.244Z,95699.38
2023-01-21T20:04:47.997Z,95701.50
2023-01-21T20:07:51.096Z,95699.56
2023-01-21T20:10:54.124Z,95696.53
2023-01-21T20:13:57.015Z,95700.81
2023-01-21T20:17:02.105Z,95703.06
2023-01-21T20:20:14.627Z,95697.59
2023-01-21T20:23:17.741Z,95703.19
2023-01-21T20:26:24.769Z,95699.16
2023-01-21T20:29:27.574Z,95704.16
2023-01-21T20:32:32.001Z,95695.81
2023-01-21T20:35:34.988Z,95702.59
2023-01-21T20:38:39.470Z,95698.47
2023-01-21T20:41:42.157Z,95704.84
2023-01-21T20:44:45.322Z,95704.47
2023-01-21T20:47:52.024Z,95708.97
2023-01-21T20:50:55.299Z,95707.41
2023-01-21T20:54:01.437Z,95708.88
2023-01-21T20:57:08.549Z,95708.97
2023-01-21T21:00:16.023Z,95709.06
2023-01-21T21:03:20.233Z,95705.75
2023-01-21T21:06:26.419Z,95709.75
2023-01-21T21:09:28.618Z,95717.31
2023-01-21T21:12:30.800Z,95719.56
2023-01-21T21:15:35.246Z,95727.63
2023-01-21T21:18:39.464Z,95726.03
2023-01-21T21:21:42.862Z,95734.09
2023-01-21T21:24:45.250Z,95734.47
2023-01-21T21:27:48.593Z,95735.84
2023-01-21T21:30:52.088Z,95735.56
2023-01-21T21:33:56.606Z,95731.72
2023-01-21T21:36:59.254Z,95739.84
2023-01-21T21:40:01.864Z,95740.97
2023-01-21T21:43:04.470Z,95745.38
2023-01-21T21:46:07.839Z,95740.53
2023-01-21T21:49:11.930Z,95746.34
2023-01-21T21:52:14.066Z,95747.53
2023-01-21T21:55:16.323Z,95751.75
2023-01-21T21:58:18.749Z,95747.22
2023-01-21T22:01:23.282Z,95739.78
2023-01-21T22:04:26.935Z,95749.56
2023-01-21T22:07:29.462Z,95745.06
2023-01-21T22:10:31.300Z,95749.09
2023-01-21T22:13:35.442Z,95743.88
2023-01-21T22:16:37.232Z,95743.31
2023-01-21T22:19:40.426Z,95743.00
2023-01-21T22:22:42.149Z,95741.34
2023-01-21T22:25:43.923Z,95740.53
2023-01-21T22:28:46.083Z,95736.13
2023-01-21T22:31:47.950Z,95745.75
2023-01-21T22:34:51.112Z,95751.75
2023-01-21T22:37:52.902Z,95739.59
2023-01-21T22:40:55.214Z,95741.94
2023-01-21T22:43:57.001Z,95740.47
2023-01-21T22:46:58.790Z,95752.72
2023-01-21T22:50:01.904Z,95747.81
2023-01-21T22:53:03.666Z,95742.50
2023-01-21T22:56:06.296Z,95751.84
2023-01-21T22:59:08.058Z,95749.09
2023-01-21T23:02:09.786Z,95759.19
2023-01-21T23:05:13.120Z,95757.03
2023-01-21T23:08:16.176Z,95757.81
2023-01-21T23:11:19.532Z,95756.44
2023-01-21T23:14:21.347Z,95751.34
2023-01-21T23:17:23.120Z,95748.50
2023-01-21T23:20:26.313Z,95757.44
2023-01-21T23:23:30.094Z,95750.75
2023-01-21T23:26:31.967Z,95760.97
2023-01-21T23:29:33.725Z,95758.13
2023-01-21T23:32:35.538Z,95753.22
2023-01-21T23:35:38.678Z,95760.16
2023-01-21T23:38:41.369Z,95756.94
2023-01-21T23:41:43.165Z,95757.72
2023-01-21T23:44:44.937Z,95752.13
2023-01-21T23:47:46.689Z,95748.50
2023-01-21T23:50:50.242Z,95750.56
2023-01-21T23:53:52.004Z,95756.94
2023-01-21T23:56:55.410Z,95760.25
2023-01-21T23:59:57.252Z,95766.38
